Historyczne dane pomiarowe

Dodano dane terminowe – wersja testowa.

Dane z okresu 1951-2019

Wersja bazy: 1.34 [2019-03-16, lista zmian], aktualizacja planowana na 2019-04-15

Dane meteo z obszaru Polski uzyskane na podstawie danych udostępnionych przez Instytut Meteorologii i Gospodarki Wodnej – Państwowy Instytut Badawczy.

 

Wybierz Datę:    

       

TemperaturaWilgotnośćWiatrCiśnienieOpadyŚniegCzas trwania zjawisk
 Stacja t tx tn tng RH VA  wxwx mslp ppp RRR   cm mm wxwxwxwxwxwxwx
1987-07-08 17.9 25.5 6.4- 55.3- 0.0 1.7---- 0.0------------
1987-07-07 14.7 24.8 4.0- 62.8- 0.0 0.0---- 0.0------------
1987-07-06 15.1 20.5 8.1- 67.8- 0.3 1.7---- 0.0------------
1987-07-05 14.3 19.0 11.1- 81.3- 7.7 1.7---- 0.5------------
1987-07-04 18.5 22.5 16.8- 64.3- 6.0 1.3---- 0.0------------
1987-07-03 19.0 22.4 16.2- 73.8- 7.3 0.3---- 0.0------------
1987-07-02 19.6 25.0 15.4- 87.0- 4.7 0.7---- 0.0------------
1987-07-01 21.9 28.5 13.2- 70.3- 0.0 1.7---- 0.0------------
1987-06-30 19.6 28.5 11.4- 75.5- 0.7 0.3---- 0.0------------
1987-06-29 18.9 24.0 13.3- 78.5- 2.3 1.0---- 0.0------------
1987-06-28 17.9 24.0 13.3- 76.3- 6.7 0.0---- 0.0------------
1987-06-27 17.9 24.0 14.3- 72.0- 4.0 1.7---- 6.0------------
1987-06-26 14.1 21.0 5.0- 71.3- 0.7 0.7---- 0.0------------
1987-06-25 13.1 18.0 9.9- 81.0- 7.3 0.0---- 6.0------------
1987-06-24 14.7 19.6 10.4- 83.5- 6.0 0.7---- 1.4------------
1987-06-23 14.8 19.4 12.4- 85.3- 7.7 0.0---- 0.0------------
1987-06-22 14.5 21.5 9.9- 81.8- 8.0 1.7---- 10.0------------
1987-06-21 12.9 21.4 5.0- 81.5- 3.3 0.7---- 0.0------------
1987-06-20 13.8 21.0 2.8- 70.0- 1.0 0.3---- 0.0------------
1987-06-19 10.9 16.4 6.0- 77.5- 3.7 0.3---- 1.0------------
1987-06-18 10.1 16.0 4.5- 80.8- 4.7 1.7---- 3.3------------
1987-06-17 10.0 13.1 8.5- 85.5- 5.7 0.3---- 1.9------------
1987-06-16 17.5 25.0 11.4- 70.5- 7.0 2.0---- 21.0------------
1987-06-15 21.9 27.5 16.2- 77.5- 5.7 2.7---- 0.2------------
1987-06-14 19.1 24.5 9.7- 72.3- 5.3 1.3---- 2.2------------
1987-06-13 18.5 25.8 9.1- 67.3- 0.7 0.7---- 0.0------------
1987-06-12 17.2 24.4 8.4- 72.0- 3.0 0.7---- 0.0------------
1987-06-11 17.1 23.8 11.9- 78.5- 4.0 0.7---- 0.0------------
1987-06-10 18.0 23.0 14.2- 79.5- 6.0 1.3---- 0.0------------
1987-06-09 19.2 25.2 12.8- 72.0- 7.3 1.3---- 2.2------------
1987-06-08 20.0 24.0 16.3- 72.0- 6.7 3.3---- 0.0------------
1987-06-07 14.9 22.0 6.5- 75.0- 6.3 0.7---- 0.0------------
1987-06-06 13.7 17.5 12.1- 74.8- 5.0 2.0---- 0.0------------
1987-06-05 13.0 16.0 11.8- 90.0- 8.0 0.3---- 2.4------------
1987-06-04 13.4 18.0 8.4- 81.3- 4.7 1.7---- 7.2------------
1987-06-03 9.3 14.5 3.5- 87.0- 5.3 0.3---- 2.9------------
1987-06-02 9.6 16.5 3.5- 77.5- 7.7 1.3---- 12.7------------
1987-06-01 6.9 13.1 2.3- 79.0- 3.7 1.3---- 0.0------------
1987-05-31 7.8 11.7 5.0- 76.3- 8.0 2.7---- 0.0------------
1987-05-30 10.0 15.8 3.5- 63.5- 4.0 3.0---- 3.3------------
1987-05-29 10.6 15.1 7.5- 74.3- 7.3 1.0---- 0.0------------
1987-05-28 11.0 15.4 9.4- 82.0- 8.0 1.3---- 9.4------------
1987-05-27 10.4 18.6 0.1- 67.3- 2.0 0.7---- 0.0------------
1987-05-26 10.0 15.4 2.7- 59.0- 3.7 1.3---- 0.0------------
1987-05-25 9.7 15.1 2.5- 77.5- 6.0 0.3---- 0.0------------
1987-05-24 10.0 13.1 8.0- 83.5- 8.0 1.0---- 0.0------------
1987-05-23 10.9 12.6 9.6- 88.8- 8.0 2.0---- 1.0------------
1987-05-22 10.4 13.7 8.6- 95.8- 8.0 0.3---- 35.0------------
1987-05-21 8.2 13.7 7.6- 92.8- 8.0 2.0---- 2.3------------
1987-05-20 12.7 16.5 10.6- 89.5- 8.0 0.3---- 18.0------------
1987-05-19 12.9 20.0 8.4- 85.8- 7.3 1.0---- 9.1------------
1987-05-18 11.1 18.4 2.3- 74.0- 7.7 0.7---- 2.2------------
1987-05-17 9.1 13.1 3.7- 77.3- 6.0 0.7---- 1.5------------
1987-05-16 8.5 14.1 1.7- 94.3- 8.0 0.7---- 9.0------------
1987-05-15 7.0 14.1 0.3- 77.8- 0.0 2.0---- 2.0------------
1987-05-14 9.6 15.6 1.6- 88.8- 7.7 2.3---- 19.2------------
1987-05-13 14.5 19.4 11.6- 65.8- 6.0 3.0---- 0.0------------
1987-05-12 10.5 15.4 1.1- 65.5- 5.7 2.3---- 0.0------------
1987-05-11 9.1 14.9 6.2- 72.3- 5.3 0.0---- 4.3------------
1987-05-10 10.0 17.5 -0.8- 62.0- 0.0 3.3---- 2.0------------
519.2 ms

 

Źródłem pochodzenia danych jest Instytut Meteorologii i Gospodarki Wodnej – Państwowy Instytut Badawczy. Dane Instytutu Meteorologii i Gospodarki Wodnej – Państwowego Instytutu Badawczego zostały przetworzone.

Dane źródłowe można odnaleźć na stronie https://dane.imgw.pl